Time;durP1;ratioP1;P1;durP2;ratioP2;P2;SDS_P1;SDS_P2;PMS_P1;PMS_P2;Temp;Humidity;BMP_temperature;BMP_pressure;BME280_temperature;BME280_humidity;BME280_pressure;Samples;Min_cycle;Max_cycle;Signal;HPM_P1;HPM_P2
2022/03/08 00:00:50;;;;;;;4.70;4.25;;;;;;;0.02;48.96;99803.47;8352997;28;20085;-82
2022/03/08 00:04:52;;;;;;;8.68;4.25;;;;;;;0.03;48.37;99800.97;8355503;28;20045;-82
2022/03/08 00:08:54;;;;;;;5.60;4.32;;;;;;;0.05;48.40;99789.16;8355839;28;20056;-82
2022/03/08 00:12:56;;;;;;;4.47;3.93;;;;;;;0.05;48.93;99789.16;8342394;28;20055;-82
2022/03/08 00:16:58;;;;;;;6.82;5.10;;;;;;;0.06;48.63;99790.03;8353731;28;20048;-82
2022/03/08 00:21:00;;;;;;;3.50;2.93;;;;;;;0.04;49.16;99791.63;8354752;28;20057;-82
2022/03/08 00:25:03;;;;;;;5.57;4.27;;;;;;;0.05;48.59;99795.94;8354728;28;20289;-82
2022/03/08 00:29:05;;;;;;;5.33;3.97;;;;;;;0.00;48.83;99777.88;8382241;28;20049;-82
2022/03/08 00:33:07;;;;;;;5.87;4.03;;;;;;;-0.02;48.39;99782.88;8699562;22;20826;-82
2022/03/08 00:37:09;;;;;;;3.88;3.53;;;;;;;-0.03;48.80;99783.69;8362402;28;20056;-82
2022/03/08 00:41:10;;;;;;;4.13;3.73;;;;;;;-0.03;48.76;99782.81;8365651;28;20056;-82
2022/03/08 00:45:12;;;;;;;7.43;4.00;;;;;;;-0.03;48.72;99785.38;8387656;28;20052;-82
2022/03/08 00:49:14;;;;;;;7.05;4.53;;;;;;;-0.07;49.33;99788.59;8367554;28;20365;-82
2022/03/08 00:53:16;;;;;;;7.17;4.03;;;;;;;-0.08;49.23;99794.50;8354387;28;20136;-82
2022/03/08 00:57:18;;;;;;;6.27;4.87;;;;;;;-0.09;49.34;99788.53;8352289;28;20124;-82
2022/03/08 01:01:20;;;;;;;6.20;4.05;;;;;;;-0.09;49.08;99780.00;8352976;28;20063;-82
2022/03/08 01:05:22;;;;;;;4.65;3.72;;;;;;;-0.11;49.38;99771.41;8320761;28;20056;-82
2022/03/08 01:09:24;;;;;;;4.65;3.95;;;;;;;-0.14;49.40;99767.06;8338716;28;20376;-82
2022/03/08 01:13:26;;;;;;;4.90;3.90;;;;;;;-0.15;49.33;99775.50;8343350;28;20048;-82
2022/03/08 01:17:28;;;;;;;4.60;4.07;;;;;;;-0.17;49.84;99772.03;8353021;28;20321;-82
2022/03/08 01:21:30;;;;;;;5.90;4.03;;;;;;;-0.18;49.11;99772.84;8352246;28;20139;-82
2022/03/08 01:25:32;;;;;;;5.18;3.97;;;;;;;-0.19;49.59;99765.94;8345891;28;20442;-82
2022/03/08 01:29:34;;;;;;;4.63;4.20;;;;;;;-0.21;50.00;99765.00;8349482;28;20107;-82
2022/03/08 01:33:36;;;;;;;6.75;3.72;;;;;;;-0.24;49.94;99770.00;8366226;28;20297;-82
2022/03/08 01:37:38;;;;;;;8.93;3.80;;;;;;;-0.29;49.73;99760.41;8365877;28;20111;-82
2022/03/08 01:41:40;;;;;;;8.95;4.45;;;;;;;-0.32;49.95;99761.13;8350902;28;20373;-82
2022/03/08 01:45:42;;;;;;;7.87;4.50;;;;;;;-0.37;50.19;99762.59;8339725;28;20073;-81
2022/03/08 01:49:45;;;;;;;6.50;4.20;;;;;;;-0.46;50.56;99760.50;8353070;28;20428;-82
2022/03/08 01:53:47;;;;;;;4.30;3.95;;;;;;;-0.56;50.88;99757.47;8353255;28;20076;-82
2022/03/08 01:57:50;;;;;;;4.95;4.07;;;;;;;-0.63;50.82;99763.97;8370262;28;20078;-82
2022/03/08 02:01:52;;;;;;;5.67;4.30;;;;;;;-0.80;52.70;99755.53;8355259;28;20455;-82
2022/03/08 02:05:54;;;;;;;7.15;4.07;;;;;;;-0.91;53.17;99756.72;8374861;28;20049;-82
2022/03/08 02:09:58;;;;;;;6.55;4.40;;;;;;;-1.03;53.09;99756.16;8371223;28;20048;-82
2022/03/08 02:14:01;;;;;;;4.83;4.00;;;;;;;-1.02;52.90;99753.69;8335661;28;20057;-81
2022/03/08 02:18:02;;;;;;;6.45;4.63;;;;;;;-1.07;53.00;99742.41;8366448;28;20123;-81
2022/03/08 02:22:04;;;;;;;4.83;4.07;;;;;;;-1.15;54.67;99742.81;8365556;28;20053;-81
2022/03/08 02:26:06;;;;;;;6.23;4.57;;;;;;;-1.31;56.87;99738.66;8346060;28;20348;-81
2022/03/08 02:30:08;;;;;;;4.77;3.97;;;;;;;-1.34;56.24;99729.22;8348232;28;20084;-81
2022/03/08 02:34:10;;;;;;;8.17;4.70;;;;;;;-1.30;54.85;99737.88;8366536;28;20052;-80
2022/03/08 02:38:11;;;;;;;4.73;3.83;;;;;;;-1.34;55.88;99728.34;8346479;28;20100;-80
2022/03/08 02:42:13;;;;;;;4.53;4.13;;;;;;;-1.44;55.79;99724.47;8340708;28;20079;-80
2022/03/08 02:46:15;;;;;;;5.60;4.38;;;;;;;-1.45;55.55;99720.16;8346832;28;20128;-80
2022/03/08 02:50:17;;;;;;;4.70;3.57;;;;;;;-1.37;55.26;99716.34;8356706;28;20420;-80
2022/03/08 02:54:19;;;;;;;4.63;3.65;;;;;;;-1.28;54.69;99716.75;8347991;28;20076;-80
2022/03/08 02:58:21;;;;;;;4.90;3.67;;;;;;;-1.20;53.70;99721.38;8355253;28;20445;-80
2022/03/08 03:02:22;;;;;;;5.13;4.10;;;;;;;-1.16;53.53;99716.47;8349002;28;20484;-80
2022/03/08 03:06:24;;;;;;;6.23;3.93;;;;;;;-1.12;53.36;99714.94;8359099;28;20400;-80
2022/03/08 03:10:27;;;;;;;5.97;4.10;;;;;;;-1.09;52.48;99718.50;8374108;28;20718;-81
2022/03/08 03:14:28;;;;;;;;;;;;;;;-1.05;52.59;99714.44;8351672;28;20140;-80
2022/03/08 03:18:30;;;;;;;5.10;3.43;;;;;;;-1.00;52.42;99720.63;8372846;28;19931;-80
2022/03/08 03:22:31;;;;;;;6.57;3.60;;;;;;;-1.00;52.45;99715.53;8345652;28;20056;-80
2022/03/08 03:26:33;;;;;;;5.23;3.77;;;;;;;-1.00;52.16;99713.84;8355474;28;20509;-80
2022/03/08 03:30:35;;;;;;;5.80;3.80;;;;;;;-1.03;52.94;99711.16;8354028;28;20049;-80
2022/03/08 03:34:36;;;;;;;3.83;3.40;;;;;;;-1.02;52.07;99718.00;8367400;28;20080;-80
2022/03/08 03:38:38;;;;;;;3.87;3.53;;;;;;;-1.00;51.71;99713.84;8348605;28;20131;-80
2022/03/08 03:42:39;;;;;;;4.27;3.63;;;;;;;-0.97;52.27;99702.91;8348740;28;20076;-80
2022/03/08 03:46:41;;;;;;;4.77;3.70;;;;;;;-0.95;51.94;99707.28;8349679;28;20052;-80
2022/03/08 03:50:43;;;;;;;3.97;2.83;;;;;;;-0.92;51.20;99696.34;8340606;28;20064;-80
2022/03/08 03:54:44;;;;;;;4.00;3.57;;;;;;;-0.89;51.97;99698.19;8367050;28;20083;-80
2022/03/08 03:58:46;;;;;;;7.10;3.93;;;;;;;-0.87;51.76;99696.59;8357805;28;20083;-80
2022/03/08 04:02:48;;;;;;;5.60;3.63;;;;;;;-0.87;51.75;99702.56;8350825;28;20076;-80
2022/03/08 04:06:49;;;;;;;6.70;4.13;;;;;;;-0.85;51.07;99702.63;8364232;28;20041;-80
2022/03/08 04:10:51;;;;;;;5.23;3.80;;;;;;;-0.82;51.62;99697.66;8353418;28;20053;-80
2022/03/08 04:14:53;;;;;;;8.13;4.15;;;;;;;-0.83;51.72;99695.91;8360381;28;20049;-80
2022/03/08 04:18:54;;;;;;;6.40;4.03;;;;;;;-0.84;51.65;99695.03;8348661;28;20053;-80
2022/03/08 04:22:56;;;;;;;5.53;3.75;;;;;;;-0.86;52.30;99704.28;8356906;28;20148;-80
2022/03/08 04:26:58;;;;;;;6.20;3.97;;;;;;;-0.92;51.92;99696.34;8362719;28;20064;-80
2022/03/08 04:31:00;;;;;;;7.55;4.13;;;;;;;-0.98;52.62;99696.94;8359074;28;20071;-80
2022/03/08 04:35:02;;;;;;;6.80;3.93;;;;;;;-1.04;53.63;99685.63;8327708;28;20544;-80
2022/03/08 04:39:04;;;;;;;5.90;4.18;;;;;;;-1.12;53.58;99694.56;8328385;28;20078;-79
2022/03/08 04:43:05;;;;;;;6.73;4.97;;;;;;;-1.15;53.90;99686.78;8326576;28;20049;-79
2022/03/08 04:47:07;;;;;;;11.07;6.33;;;;;;;-1.22;53.78;99680.53;8325324;28;20683;-80
2022/03/08 04:51:08;;;;;;;6.13;4.03;;;;;;;-1.23;53.07;99681.34;8323841;28;20779;-80
2022/03/08 04:55:11;;;;;;;6.63;3.97;;;;;;;-1.21;52.83;99684.84;8320817;28;20124;-80
2022/03/08 04:59:12;;;;;;;4.90;3.65;;;;;;;-1.21;53.49;99682.28;8324113;28;20828;-80
2022/03/08 05:03:14;;;;;;;4.47;3.87;;;;;;;-1.26;53.73;99684.63;8316799;28;20057;-80
2022/03/08 05:07:16;;;;;;;4.30;3.73;;;;;;;-1.28;53.68;99682.78;8322080;28;20049;-80
2022/03/08 05:11:17;;;;;;;4.73;3.33;;;;;;;-1.26;53.44;99687.16;8325092;28;20306;-80
2022/03/08 05:15:19;;;;;;;5.50;3.83;;;;;;;-1.27;53.09;99689.63;8323616;28;20079;-80
2022/03/08 05:19:20;;;;;;;3.90;2.97;;;;;;;-1.27;52.80;99695.59;8318784;28;20434;-80
2022/03/08 05:23:22;;;;;;;5.83;3.47;;;;;;;-1.26;52.78;99687.16;8324022;28;20466;-80
2022/03/08 05:27:23;;;;;;;5.80;3.50;;;;;;;-1.27;53.28;99675.19;8319910;28;20061;-80
2022/03/08 05:31:25;;;;;;;6.43;3.90;;;;;;;-1.31;53.12;99669.91;8327062;28;20064;-80
2022/03/08 05:35:26;;;;;;;3.03;2.45;;;;;;;-1.32;53.42;99670.72;8321491;28;20054;-80
2022/03/08 05:39:28;;;;;;;4.57;3.50;;;;;;;-1.32;53.43;99674.13;8316271;28;20100;-80
2022/03/08 05:43:30;;;;;;;4.45;3.72;;;;;;;-1.32;53.05;99676.66;8324333;28;20079;-80
2022/03/08 05:47:32;;;;;;;3.67;3.07;;;;;;;-1.30;52.60;99669.97;8325017;28;20069;-80
2022/03/08 05:51:34;;;;;;;4.83;3.50;;;;;;;-1.25;52.76;99662.56;8323361;28;20076;-80
2022/03/08 05:55:36;;;;;;;5.25;3.17;;;;;;;-1.23;52.74;99666.06;8314247;28;20068;-80
2022/03/08 05:59:37;;;;;;;4.40;3.43;;;;;;;-1.20;52.40;99657.69;8321034;28;20049;-80
2022/03/08 06:03:39;;;;;;;5.37;3.83;;;;;;;-1.18;52.69;99644.22;8311121;28;20058;-79
2022/03/08 06:07:40;;;;;;;4.40;3.03;;;;;;;-1.13;52.12;99645.28;8315169;28;20056;-79
2022/03/08 06:11:42;;;;;;;5.00;3.23;;;;;;;-1.07;52.48;99639.63;8327251;28;20072;-79
2022/03/08 06:15:44;;;;;;;4.25;3.92;;;;;;;-1.02;52.11;99653.44;8323301;28;20192;-79
2022/03/08 06:19:46;;;;;;;4.38;3.05;;;;;;;-0.97;52.08;99664.69;8325008;28;20058;-79
2022/03/08 06:23:48;;;;;;;6.70;3.40;;;;;;;-0.93;51.82;99661.47;8326408;28;20100;-78
2022/03/08 06:27:49;;;;;;;5.90;3.33;;;;;;;-0.86;52.23;99666.06;8326230;28;20041;-79
2022/03/08 06:31:51;;;;;;;4.87;4.07;;;;;;;-0.78;51.00;99663.84;8321652;28;20092;-79
2022/03/08 06:35:53;;;;;;;4.87;3.00;;;;;;;-0.70;51.16;99668.50;8318812;28;20306;-79
2022/03/08 06:39:54;;;;;;;3.37;3.07;;;;;;;-0.64;51.00;99668.75;8319976;28;20453;-79
2022/03/08 06:43:56;;;;;;;5.43;3.60;;;;;;;-0.56;51.54;99671.63;8325806;28;20049;-79
2022/03/08 06:47:57;;;;;;;5.53;3.33;;;;;;;-0.50;50.76;99684.69;8322824;28;20065;-79
2022/03/08 06:51:59;;;;;;;5.17;3.37;;;;;;;-0.40;50.29;99688.47;8317955;28;21042;-79
2022/03/08 06:56:01;;;;;;;3.75;3.08;;;;;;;-0.29;50.22;99682.19;8322089;28;20073;-80
2022/03/08 07:00:05;;;;;;;3.72;2.70;;;;;;;-0.17;50.39;99695.47;8328811;28;20053;-79
2022/03/08 07:04:07;;;;;;;3.60;2.80;;;;;;;-0.05;49.44;99683.22;8317998;28;20080;-79
2022/03/08 07:08:08;;;;;;;4.03;2.90;;;;;;;0.10;49.13;99700.84;8331256;28;20704;-79
2022/03/08 07:12:10;;;;;;;3.40;2.73;;;;;;;0.30;48.89;99694.88;8321962;28;20053;-79
2022/03/08 07:16:12;;;;;;;4.87;2.93;;;;;;;0.60;48.50;99700.38;8321240;28;20168;-79
2022/03/08 07:20:14;;;;;;;3.13;2.83;;;;;;;1.30;47.06;99693.69;8327746;28;20045;-79
2022/03/08 07:24:16;;;;;;;2.72;2.38;;;;;;;1.93;45.62;99699.38;8329335;28;20063;-80
2022/03/08 07:28:17;;;;;;;4.67;2.27;;;;;;;2.32;44.24;99694.72;8330753;28;20407;-80
2022/03/08 07:32:33;;;;;;;5.33;2.40;;;;;;;2.73;43.36;99698.63;8326329;28;20095;-79
2022/03/08 07:36:35;;;;;;;4.30;2.27;;;;;;;3.12;42.03;99698.13;8346884;28;20104;-79
2022/03/08 07:40:36;;;;;;;3.17;2.43;;;;;;;3.52;40.85;99692.44;8344091;28;20425;-80
2022/03/08 07:44:39;;;;;;;4.60;2.53;;;;;;;3.78;40.42;99700.91;8353999;28;20073;-80
2022/03/08 07:48:41;;;;;;;2.83;2.43;;;;;;;3.90;39.92;99701.22;8333465;28;20095;-80
2022/03/08 07:52:43;;;;;;;4.30;2.40;;;;;;;4.02;38.96;99709.25;8339606;28;20742;-77
2022/03/08 07:56:44;;;;;;;3.87;3.10;;;;;;;4.17;38.98;99699.38;8346673;28;20334;-80
2022/03/08 08:00:46;;;;;;;2.80;2.47;;;;;;;4.44;38.49;99706.91;8357051;28;20535;-80
2022/03/08 08:04:48;;;;;;;2.55;2.10;;;;;;;4.66;37.91;99703.16;8358613;28;20120;-78
2022/03/08 08:08:50;;;;;;;3.97;2.27;;;;;;;4.98;37.28;99715.94;8360357;28;20076;-79
2022/03/08 08:12:52;;;;;;;5.88;2.03;;;;;;;5.18;36.59;99714.66;8343382;28;20056;-81
2022/03/08 08:16:53;;;;;;;2.27;1.80;;;;;;;5.35;36.48;99708.19;8350054;28;20055;-81
2022/03/08 08:20:55;;;;;;;2.08;1.85;;;;;;;5.46;35.97;99704.16;8340945;28;20060;-80
2022/03/08 08:24:57;;;;;;;2.40;1.85;;;;;;;5.66;35.88;99709.69;8353368;28;20053;-81
2022/03/08 08:28:59;;;;;;;2.37;1.53;;;;;;;5.89;35.63;99712.72;8373752;28;20378;-81
2022/03/08 08:33:01;;;;;;;1.50;1.40;;;;;;;6.27;34.74;99708.31;8360480;28;20089;-81
2022/03/08 08:37:04;;;;;;;1.37;1.27;;;;;;;6.59;34.49;99706.28;8335042;28;20049;-79
2022/03/08 08:41:08;;;;;;;;;;;;;;;6.72;33.62;99709.94;8329223;28;20302;-81
2022/03/08 08:45:40;;;;;;;1.67;1.43;;;;;;;6.89;34.00;99712.78;8329594;28;19921;-81
2022/03/08 08:50:06;;;;;;;1.70;1.60;;;;;;;7.02;33.31;99716.44;8332578;28;20060;-81
2022/03/08 08:54:13;;;;;;;4.80;1.67;;;;;;;7.26;33.61;99696.13;8334955;28;20077;-81
2022/03/08 08:58:18;;;;;;;0.93;0.93;;;;;;;7.39;32.86;99705.78;8332111;28;20083;-81
2022/03/08 09:02:48;;;;;;;1.65;1.10;;;;;;;7.49;32.08;99707.63;8307434;28;20602;-81
2022/03/08 09:06:53;;;;;;;1.10;1.00;;;;;;;7.58;32.99;99712.94;8321763;28;20483;-81
2022/03/08 09:10:55;;;;;;;1.27;1.13;;;;;;;7.67;32.02;99711.28;8323696;28;20200;-80
2022/03/08 09:14:58;;;;;;;2.50;1.42;;;;;;;7.74;31.79;99708.81;8322970;28;20061;-80
2022/03/08 09:18:59;;;;;;;1.53;1.17;;;;;;;7.84;31.11;99707.19;8315243;28;20061;-79
2022/03/08 09:23:01;;;;;;;1.87;1.30;;;;;;;7.98;31.76;99700.47;8319284;28;20061;-78
2022/03/08 09:27:03;;;;;;;2.00;1.13;;;;;;;8.02;31.33;99694.47;8318891;28;20053;-79
2022/03/08 09:31:05;;;;;;;1.20;1.13;;;;;;;8.14;32.51;99697.19;8313406;28;20065;-79
2022/03/08 09:35:08;;;;;;;2.00;1.90;;;;;;;8.31;32.40;99696.50;8321615;28;20115;-79
2022/03/08 09:39:10;;;;;;;1.63;1.50;;;;;;;8.30;31.20;99687.88;8322943;28;20099;-79
2022/03/08 09:43:17;;;;;;;1.45;1.27;;;;;;;8.29;31.22;99695.63;8318340;28;20067;-78
2022/03/08 09:47:19;;;;;;;2.38;1.40;;;;;;;8.32;31.71;99686.16;8319776;28;20525;-78
2022/03/08 09:51:22;;;;;;;1.30;1.20;;;;;;;8.45;31.59;99685.47;8311161;28;20129;-78
2022/03/08 09:55:25;;;;;;;2.42;1.55;;;;;;;8.57;31.49;99687.25;8321308;28;20525;-78
2022/03/08 09:59:29;;;;;;;2.13;1.42;;;;;;;8.55;31.53;99688.09;8320369;28;20426;-78
2022/03/08 10:03:36;;;;;;;2.55;1.52;;;;;;;8.69;31.15;99678.75;8310090;28;20058;-78
2022/03/08 10:07:38;;;;;;;3.58;1.40;;;;;;;8.65;31.71;99679.56;8318279;28;20049;-78
2022/03/08 10:11:40;;;;;;;2.88;2.42;;;;;;;8.79;31.52;99672.75;8313061;28;20080;-78
2022/03/08 10:16:15;;;;;;;1.88;1.73;;;;;;;8.92;31.22;99677.16;8334004;28;20080;-77
2022/03/08 10:20:30;;;;;;;1.90;1.80;;;;;;;8.92;31.67;99666.81;8313396;28;20504;-77
2022/03/08 10:24:33;;;;;;;2.45;1.40;;;;;;;9.06;31.54;99669.50;8315402;28;20053;-78
2022/03/08 10:28:43;;;;;;;;;;;;;;;9.34;31.30;99660.16;8323908;28;20082;-77
2022/03/08 10:32:46;;;;;;;1.45;1.35;;;;;;;9.45;31.59;99665.38;8320785;28;20015;-77
2022/03/08 10:36:59;;;;;;;1.85;1.70;;;;;;;9.53;31.16;99661.97;8313971;28;20133;-77
2022/03/08 10:41:16;;;;;;;1.30;1.20;;;;;;;9.57;29.87;99660.25;8290234;28;20084;-76
2022/03/08 10:45:18;;;;;;;1.20;1.10;;;;;;;9.75;29.44;99660.31;8291659;28;21356;-77
2022/03/08 10:49:20;;;;;;;1.33;1.23;;;;;;;9.75;29.95;99654.28;8292369;28;20141;-77
2022/03/08 10:53:25;;;;;;;1.43;1.33;;;;;;;9.86;29.70;99658.59;8291828;28;20062;-76
2022/03/08 10:57:33;;;;;;;2.17;1.15;;;;;;;9.80;29.28;99652.56;8291866;28;20502;-76
2022/03/08 11:01:49;;;;;;;1.30;1.10;;;;;;;9.98;29.32;99660.38;8288604;28;20057;-77
2022/03/08 11:05:54;;;;;;;1.80;1.70;;;;;;;9.98;29.27;99650.00;8304951;28;20050;-77
2022/03/08 11:09:56;;;;;;;1.50;1.40;;;;;;;10.04;29.79;99655.19;8291871;28;20303;-77
2022/03/08 11:13:58;;;;;;;1.45;1.35;;;;;;;10.24;29.39;99652.69;8291521;28;20064;-77
2022/03/08 11:18:00;;;;;;;2.13;1.55;;;;;;;10.38;29.44;99650.94;8287760;28;20057;-77
2022/03/08 11:22:02;;;;;;;1.92;1.20;;;;;;;10.48;28.54;99651.81;8292092;28;20089;-78
2022/03/08 11:26:04;;;;;;;1.23;1.00;;;;;;;10.58;28.95;99646.63;8289414;28;20522;-77
2022/03/08 11:30:10;;;;;;;2.80;1.95;;;;;;;10.71;29.40;99644.88;8285609;28;20137;-76
2022/03/08 11:34:46;;;;;;;2.30;1.73;;;;;;;10.88;28.59;99645.72;8305758;28;20084;-77
2022/03/08 11:39:12;;;;;;;2.60;2.33;;;;;;;10.88;27.84;99643.13;8320990;28;20428;-77
2022/03/08 11:43:14;;;;;;;2.22;1.30;;;;;;;10.93;28.03;99631.84;8352596;28;20063;-77
2022/03/08 11:47:16;;;;;;;2.78;2.58;;;;;;;10.83;28.29;99625.84;8342737;28;20084;-77
2022/03/08 11:51:17;;;;;;;5.28;4.10;;;;;;;10.84;28.70;99618.03;8365965;28;20139;-76
2022/03/08 11:55:25;;;;;;;2.13;1.80;;;;;;;10.83;28.74;99612.84;8358259;28;20062;-77
2022/03/08 11:59:27;;;;;;;10.43;1.88;;;;;;;11.11;28.75;99617.09;8356479;28;20413;-77
2022/03/08 12:03:28;;;;;;;2.23;1.70;;;;;;;11.26;28.20;99621.38;8352178;28;20080;-76
2022/03/08 12:07:30;;;;;;;2.85;2.60;;;;;;;11.18;28.44;99616.22;8355389;28;20071;-77
2022/03/08 12:11:35;;;;;;;3.65;1.75;;;;;;;11.38;28.56;99604.88;8356098;28;20131;-77
2022/03/08 12:16:09;;;;;;;1.10;1.10;;;;;;;11.57;27.46;99600.47;8339512;28;20667;-77
2022/03/08 12:20:14;;;;;;;1.50;1.40;;;;;;;11.62;26.31;99596.09;8355293;28;20237;-76
2022/03/08 12:24:18;;;;;;;1.70;1.60;;;;;;;11.65;26.72;99596.06;8336176;28;20543;-77
2022/03/08 12:28:58;;;;;;;1.80;1.70;;;;;;;11.63;27.52;99598.69;8351894;28;20456;-76
2022/03/08 12:32:59;;;;;;;1.75;1.60;;;;;;;11.72;27.35;99582.16;8331896;28;20055;-76
2022/03/08 12:37:06;;;;;;;3.60;1.77;;;;;;;12.02;26.74;99574.16;8352699;28;20671;-77
2022/03/08 12:41:08;;;;;;;1.73;1.30;;;;;;;12.01;25.41;99574.19;8351876;28;20056;-76
2022/03/08 12:45:20;;;;;;;2.55;1.05;;;;;;;11.93;24.91;99571.66;8332324;28;20148;-77
2022/03/08 12:49:22;;;;;;;1.42;1.33;;;;;;;12.02;24.46;99558.56;8353229;28;20049;-77
2022/03/08 12:53:26;;;;;;;1.63;1.53;;;;;;;11.83;24.32;99567.38;8334895;28;20074;-76
2022/03/08 12:57:29;;;;;;;1.83;1.25;;;;;;;11.95;24.62;99567.28;8334583;28;20060;-76
2022/03/08 13:01:50;;;;;;;1.50;1.40;;;;;;;12.21;25.43;99559.31;8347664;28;20049;-76
2022/03/08 13:05:54;;;;;;;1.20;1.05;;;;;;;12.23;24.06;99554.09;8348933;28;20143;-77
2022/03/08 13:10:00;;;;;;;1.02;1.00;;;;;;;12.28;24.34;99562.72;8333049;28;20635;-76
2022/03/08 13:14:10;;;;;;;1.80;1.30;;;;;;;12.36;24.43;99553.06;8334784;28;20090;-76
2022/03/08 13:18:13;;;;;;;1.33;1.23;;;;;;;12.39;25.16;99553.06;8326640;28;20132;-76
2022/03/08 13:22:14;;;;;;;2.13;1.90;;;;;;;12.20;25.62;99546.28;8347020;28;20084;-76
2022/03/08 13:30:41;;;;;;;2.88;1.83;;;;;;;12.09;25.75;99548.97;8342579;28;20143;-76
2022/03/08 13:35:00;;;;;;;2.45;2.25;;;;;;;12.07;24.99;99550.75;8347524;28;20187;-76
2022/03/08 13:39:02;;;;;;;1.95;1.83;;;;;;;12.13;25.17;99549.81;8346568;28;20053;-76
2022/03/08 13:43:04;;;;;;;2.80;1.92;;;;;;;12.08;25.60;99545.53;8339739;28;20421;-76
2022/03/08 13:47:25;;;;;;;3.33;2.22;;;;;;;12.15;25.64;99546.31;8335737;28;20048;-76
2022/03/08 13:51:30;;;;;;;2.53;1.87;;;;;;;12.12;25.90;99529.88;8317080;28;20084;-76
2022/03/08 13:55:31;;;;;;;3.38;3.08;;;;;;;12.24;25.30;99535.84;8335648;28;20049;-76
2022/03/08 13:59:35;;;;;;;3.25;2.95;;;;;;;12.30;25.15;99545.31;8330704;28;20045;-76
2022/03/08 14:03:42;;;;;;;4.35;3.20;;;;;;;12.10;25.21;99542.91;8319129;28;20053;-76
2022/03/08 14:08:03;;;;;;;4.38;3.30;;;;;;;11.90;25.45;99544.78;8347811;28;20148;-76
2022/03/08 14:12:05;;;;;;;2.78;2.25;;;;;;;11.84;25.79;99550.03;8342002;28;20076;-76
2022/03/08 14:16:07;;;;;;;5.88;3.80;;;;;;;11.75;26.34;99535.31;8323283;28;20406;-76
2022/03/08 14:20:27;;;;;;;4.03;3.22;;;;;;;11.81;26.00;99548.31;8331376;28;20048;-76
2022/03/08 14:24:29;;;;;;;3.58;3.28;;;;;;;11.84;25.60;99563.03;8348196;28;20080;-77
2022/03/08 14:28:49;;;;;;;4.13;3.20;;;;;;;11.78;25.85;99559.59;8357014;28;20144;-75
2022/03/08 14:32:52;;;;;;;4.50;3.33;;;;;;;11.71;25.63;99563.09;8345188;28;20052;-76
2022/03/08 14:36:53;;;;;;;3.20;2.92;;;;;;;11.67;25.89;99560.50;8323143;28;20255;-75
2022/03/08 14:44:33;;;;;;;2.60;2.13;;;;;;;11.68;26.92;99541.44;8443152;27;20380;-76
2022/03/08 14:48:35;;;;;;;2.45;2.25;;;;;;;11.65;26.55;99544.03;8421371;28;20721;-76
2022/03/08 14:52:39;;;;;;;1.85;1.75;;;;;;;11.57;26.24;99543.25;8382814;28;20044;-76
2022/03/08 14:56:41;;;;;;;2.88;2.67;;;;;;;11.57;27.09;99544.09;8411921;28;20330;-75
2022/03/08 15:00:43;;;;;;;2.40;2.25;;;;;;;11.54;27.16;99551.94;8411428;28;20071;-76
2022/03/08 15:04:45;;;;;;;3.05;2.58;;;;;;;11.41;26.98;99553.72;8406292;28;20044;-76
2022/03/08 15:08:47;;;;;;;4.18;2.50;;;;;;;11.38;27.22;99545.94;8413041;28;20063;-76
2022/03/08 15:12:48;;;;;;;3.20;2.60;;;;;;;11.37;27.13;99546.81;8408891;28;20517;-76
2022/03/08 15:16:50;;;;;;;1.73;1.63;;;;;;;11.33;27.25;99546.84;8384114;28;20385;-76
2022/03/08 15:20:51;;;;;;;2.37;2.20;;;;;;;11.26;27.56;99540.78;8407119;28;20059;-77
2022/03/08 15:24:53;;;;;;;2.35;2.20;;;;;;;11.30;27.26;99552.03;8387498;28;20108;-76
2022/03/08 15:28:54;;;;;;;21.50;3.58;;;;;;;11.34;27.71;99551.19;8407371;28;20733;-76
2022/03/08 15:32:57;;;;;;;2.10;2.00;;;;;;;11.33;27.35;99554.66;8418992;28;20076;-76
2022/03/08 15:36:58;;;;;;;7.38;3.92;;;;;;;11.54;27.49;99551.06;8411804;28;20063;-77
2022/03/08 15:41:00;;;;;;;5.90;3.10;;;;;;;11.70;27.99;99544.91;8406485;28;20159;-77
2022/03/08 15:45:05;;;;;;;4.22;3.53;;;;;;;11.79;27.31;99560.47;8413102;28;20052;-77
2022/03/08 15:49:07;;;;;;;4.43;3.65;;;;;;;11.88;27.58;99563.03;8414711;28;20557;-76
2022/03/08 15:53:09;;;;;;;3.67;3.17;;;;;;;13.72;25.42;99569.78;8405728;28;20683;-76
2022/03/08 15:57:10;;;;;;;3.50;3.20;;;;;;;16.61;21.33;99563.97;8372523;28;20060;-77
2022/03/08 16:01:12;;;;;;;5.27;4.77;;;;;;;16.43;21.89;99560.97;8389997;28;20076;-78
2022/03/08 16:05:15;;;;;;;4.30;3.90;;;;;;;16.86;21.35;99566.81;8387558;28;20044;-77
2022/03/08 16:09:16;;;;;;;6.97;5.40;;;;;;;17.72;20.08;99570.50;8371914;28;20063;-76
2022/03/08 16:13:18;;;;;;;10.43;6.23;;;;;;;17.03;20.20;99563.72;8392961;28;20054;-76
2022/03/08 16:17:19;;;;;;;10.40;7.00;;;;;;;18.92;19.09;99568.31;8389457;28;20059;-76
2022/03/08 16:21:21;;;;;;;7.78;6.97;;;;;;;20.11;17.32;99566.44;8391115;28;20071;-76
2022/03/08 16:25:23;;;;;;;9.37;7.63;;;;;;;18.76;17.98;99572.38;8386508;28;20750;-76
2022/03/08 16:29:24;;;;;;;5.65;5.18;;;;;;;16.28;20.62;99555.19;8363741;28;20319;-76
2022/03/08 16:33:26;;;;;;;7.17;4.13;;;;;;;14.71;22.55;99568.19;8365019;28;20049;-76
2022/03/08 16:37:27;;;;;;;5.73;4.20;;;;;;;13.53;23.76;99571.78;8365552;28;20523;-76
2022/03/08 16:41:29;;;;;;;4.50;4.13;;;;;;;12.39;24.89;99571.31;8362683;28;20155;-75
2022/03/08 16:45:31;;;;;;;6.20;4.00;;;;;;;11.52;26.48;99584.03;8367898;28;20052;-76
2022/03/08 16:49:32;;;;;;;4.35;3.00;;;;;;;10.80;27.13;99579.97;8350619;28;20140;-76
2022/03/08 16:53:34;;;;;;;3.33;2.90;;;;;;;10.32;28.43;99573.09;8365043;28;20042;-76
2022/03/08 16:57:36;;;;;;;4.90;4.00;;;;;;;9.90;29.13;99577.38;8372231;28;20055;-76
2022/03/08 17:01:39;;;;;;;3.65;3.17;;;;;;;9.57;30.15;99574.72;8365276;28;20596;-76
2022/03/08 17:05:44;;;;;;;6.43;3.97;;;;;;;9.30;30.52;99589.31;8366930;28;20372;-76
2022/03/08 17:09:45;;;;;;;6.77;2.53;;;;;;;9.06;30.46;99591.78;8367715;28;20172;-77
2022/03/08 17:13:49;;;;;;;3.30;3.00;;;;;;;8.85;31.02;99591.69;8353480;28;20055;-76
2022/03/08 17:17:50;;;;;;;6.22;3.67;;;;;;;8.66;30.58;99598.47;8347994;28;20059;-76
2022/03/08 17:21:52;;;;;;;4.23;3.37;;;;;;;8.52;30.73;99598.38;8362527;28;20084;-76
2022/03/08 17:25:55;;;;;;;5.72;3.15;;;;;;;8.35;30.76;99603.41;8377987;28;20056;-77
2022/03/08 17:29:57;;;;;;;7.80;4.70;;;;;;;8.22;31.26;99619.66;8394070;28;20493;-78
2022/03/08 17:34:01;;;;;;;3.57;3.03;;;;;;;8.08;31.15;99616.97;8374036;28;20167;-77
2022/03/08 17:38:03;;;;;;;4.40;3.17;;;;;;;7.96;31.66;99626.31;8382475;28;20086;-77
2022/03/08 17:42:05;;;;;;;4.10;2.47;;;;;;;7.76;32.29;99616.66;8384546;28;20076;-76
2022/03/08 17:46:06;;;;;;;2.67;2.33;;;;;;;7.64;32.58;99620.81;8391455;28;20147;-77
2022/03/08 17:50:10;;;;;;;2.78;2.13;;;;;;;7.48;32.62;99630.09;8386551;28;20052;-75
2022/03/08 17:54:12;;;;;;;3.53;2.60;;;;;;;7.33;33.71;99635.06;8376249;28;20051;-77
2022/03/08 17:58:13;;;;;;;3.63;2.15;;;;;;;7.13;34.13;99634.81;8386142;28;20156;-76
2022/03/08 18:02:16;;;;;;;3.27;2.97;;;;;;;6.94;34.63;99637.16;8388705;28;20095;-77
2022/03/08 18:06:18;;;;;;;;;;;;;;;6.71;35.00;99646.28;8395083;28;20081;-77
2022/03/08 18:10:19;;;;;;;3.50;2.30;;;;;;;6.55;35.06;99650.34;8395956;28;19934;-78
2022/03/08 18:14:21;;;;;;;4.23;2.97;;;;;;;6.42;35.98;99639.78;8389706;28;20063;-76
2022/03/08 18:18:23;;;;;;;3.08;2.78;;;;;;;6.30;36.49;99645.63;8393403;28;20131;-77
2022/03/08 18:22:26;;;;;;;3.03;2.20;;;;;;;6.18;36.40;99643.72;8392008;28;20040;-76
2022/03/08 18:26:27;;;;;;;2.72;2.28;;;;;;;6.01;36.96;99648.56;8373164;28;20095;-77
2022/03/08 18:30:29;;;;;;;7.43;2.60;;;;;;;5.79;38.23;99658.44;8372487;28;20086;-77
2022/03/08 18:34:32;;;;;;;5.30;2.35;;;;;;;5.62;38.28;99658.97;8392492;28;20055;-77
2022/03/08 18:38:33;;;;;;;2.13;1.92;;;;;;;5.37;39.31;99665.31;8377834;28;20084;-77
2022/03/08 18:42:35;;;;;;;2.87;2.00;;;;;;;5.10;40.20;99663.03;8385719;28;20528;-78
2022/03/08 18:46:36;;;;;;;2.20;2.00;;;;;;;4.91;41.20;99660.03;8352546;28;20055;-77
2022/03/08 18:50:40;;;;;;;3.27;2.30;;;;;;;4.72;42.15;99649.31;8365026;28;20057;-78
2022/03/08 18:54:41;;;;;;;2.70;1.90;;;;;;;4.56;42.05;99657.50;8371035;28;20048;-77
2022/03/08 18:58:43;;;;;;;2.10;1.90;;;;;;;4.36;43.59;99656.16;8355160;28;20128;-77
2022/03/08 19:02:45;;;;;;;1.85;1.70;;;;;;;4.16;45.41;99658.25;8354951;28;20452;-78
2022/03/08 19:06:51;;;;;;;4.50;1.77;;;;;;;3.89;46.88;99660.94;8359060;28;20155;-77
2022/03/08 19:10:52;;;;;;;1.97;1.77;;;;;;;3.71;47.38;99676.72;8361440;28;20124;-78
2022/03/08 19:14:54;;;;;;;4.83;2.10;;;;;;;3.57;48.39;99678.03;8369836;28;20052;-78
2022/03/08 19:18:56;;;;;;;14.80;2.60;;;;;;;3.35;48.73;99676.56;8355654;28;20063;-78